logo dgac
Sábado 18 de Noviembre del 2017
Buscar por aerodromo o helipuerto
Ingrese nombre de aeródromo, localidad o designador OACI:

Aeródromo: Eulogio Sánchez (PUB) (SCTB)

Ubicación: Santiago, XIII Región, Chile (33º 27' 25'' S, 70º 32' 50'' W) Ver ubicación en el mapa

Pistas

Orientación Dimensión Pendiente Superficie Resistencia APCH THR RWY PAPI
01/19 966 x 30 -1,70 ASPH 5.700 Kg No
Horas de operación MON-FRI 1130-FCCV SAT/SUN/HOL 1200-FCCV
Elevación 649 m / 2129 ft
Otra Información Adm : Fernando Larraín Egusquiza
Uso : PUB
TEL Club Aéreo 56-223530201/ Fax 56-223530298 CEL 56-992995927
TEL D.G.A.C - ARO 56-223716817 - 223716818

RMK / OPS fuera del horario establecido, deberán ser coordinadas y autorizadas en primera instancia por la Administración del AD y luego por la DGAC

Otra información ver AIP-Chile Volumen I AD 3.9-18.6-S y VAC
andera de Chile
Mapa de Eulogio Sánchez (PUB) (SCTB)

Último METAR

METAR SCTB 181400Z 15003KT CAVOK 19/05 Q1017

Último TAF

TAF SCTB 181002Z 1812/1824 VRB03KT CAVOK TX28/1818Z TN10/1812Z BECMG 1814/1816 21008KT

Últimas fotos cámaras

Imagen aerodromo Eulogio Sánchez (PUB) (SCTB) Sur tomada el 18-11-2017 11:02:16 Imagen aerodromo Eulogio Sánchez (PUB) (SCTB) N-Este tomada el 18-11-2017 11:05:06

Último NOTAM

C3471/17 NOTAMR C3249/17 Q)SCEZ/QLPAS/IV/BO/A/000/999/3327S07033W005 A)SCTB B)1711151601 C)1711302359 E)APAPI RWY 19 U/S

LLegadas a Eulogio Sánchez (PUB) (SCTB)

En vuelo

Salidas de Eulogio Sánchez (PUB) (SCTB)

En vuelo